Time;durP1;ratioP1;P1;durP2;ratioP2;P2;SDS_P1;SDS_P2;PMS_P1;PMS_P2;Temp;Humidity;BMP_temperature;BMP_pressure;BME280_temperature;BME280_humidity;BME280_pressure;Samples;Min_cycle;Max_cycle;Signal;HPM_P1;HPM_P2
2023/09/14 00:02:22;;;;;;;10.53;2.33;;;;;;;21.50;49.85;99081.00;5108854;28;20400;-62
2023/09/14 00:04:49;;;;;;;4.23;2.13;;;;;;;21.47;50.21;99074.41;5108099;28;20200;-62
2023/09/14 00:07:15;;;;;;;5.73;2.13;;;;;;;21.44;50.64;99075.56;5108628;28;20211;-62
2023/09/14 00:09:42;;;;;;;4.43;2.20;;;;;;;21.43;50.31;99073.94;5108514;28;20708;-63
2023/09/14 00:12:09;;;;;;;8.73;2.50;;;;;;;21.43;50.51;99073.13;5108374;28;20199;-62
2023/09/14 00:14:36;;;;;;;11.50;2.63;;;;;;;21.45;50.83;99076.38;5108574;28;20227;-62
2023/09/14 00:17:06;;;;;;;9.70;2.43;;;;;;;21.42;50.59;99066.31;5109010;28;20196;-62
2023/09/14 00:19:32;;;;;;;7.43;2.50;;;;;;;21.38;50.65;99075.47;5107915;28;20289;-62
2023/09/14 00:21:59;;;;;;;6.63;2.50;;;;;;;21.31;51.23;99080.56;5108094;28;20202;-62
2023/09/14 00:24:26;;;;;;;6.67;2.40;;;;;;;21.20;51.25;99074.00;5108820;28;20214;-62
2023/09/14 00:26:53;;;;;;;12.37;2.30;;;;;;;21.22;51.12;99073.84;5107939;28;20204;-62
2023/09/14 00:29:19;;;;;;;7.37;2.20;;;;;;;21.21;51.55;99074.84;5108133;28;20221;-62
2023/09/14 00:31:46;;;;;;;5.57;2.00;;;;;;;21.16;51.35;99067.56;5108301;28;20211;-62
2023/09/14 00:34:14;;;;;;;10.27;2.17;;;;;;;21.05;51.82;99075.81;5108143;28;20235;-63
2023/09/14 00:36:41;;;;;;;6.77;2.33;;;;;;;20.97;52.30;99074.09;5107577;28;20209;-62
2023/09/14 00:39:10;;;;;;;10.60;2.50;;;;;;;20.93;52.80;99072.84;5108774;28;20206;-62
2023/09/14 00:41:37;;;;;;;8.17;2.10;;;;;;;20.89;52.49;99076.78;5108325;28;20199;-62
2023/09/14 00:44:04;;;;;;;8.23;2.37;;;;;;;20.86;52.32;99077.13;5107638;28;20202;-62
2023/09/14 00:46:31;;;;;;;3.93;2.13;;;;;;;20.84;52.64;99073.09;5107790;28;20688;-62
2023/09/14 00:48:58;;;;;;;9.07;2.37;;;;;;;20.78;52.91;99075.41;5108306;28;20201;-62
2023/09/14 00:51:29;;;;;;;8.77;2.50;;;;;;;20.74;52.96;99066.38;5107636;28;20204;-62
2023/09/14 00:53:57;;;;;;;7.33;2.73;;;;;;;20.82;53.33;99064.66;5107809;28;20197;-62
2023/09/14 00:56:25;;;;;;;8.77;2.70;;;;;;;20.79;53.17;99066.63;5108199;28;20200;-62
2023/09/14 00:58:52;;;;;;;6.47;2.60;;;;;;;20.74;53.57;99066.38;5107794;28;20198;-62
2023/09/14 01:01:19;;;;;;;4.70;2.43;;;;;;;20.68;54.00;99058.44;5107442;28;20200;-62
2023/09/14 01:03:46;;;;;;;6.73;2.40;;;;;;;20.70;53.88;99069.47;5107834;28;20591;-62
2023/09/14 01:06:13;;;;;;;6.00;2.30;;;;;;;20.72;54.10;99063.13;5108033;28;20229;-62
2023/09/14 01:08:41;;;;;;;6.43;2.53;;;;;;;20.67;54.02;99062.84;5107228;28;20214;-62
2023/09/14 01:11:09;;;;;;;6.00;2.50;;;;;;;20.62;54.08;99059.16;5108158;28;20300;-62
2023/09/14 01:13:43;;;;;;;7.43;2.50;;;;;;;20.56;54.34;99058.88;5108156;28;20202;-62
2023/09/14 01:16:16;;;;;;;9.70;2.67;;;;;;;20.50;54.61;99062.16;5107405;28;20224;-62
2023/09/14 01:18:52;;;;;;;5.53;2.37;;;;;;;20.48;54.94;99061.53;5107913;28;20236;-62
2023/09/14 01:21:37;;;;;;;7.20;2.67;;;;;;;20.51;55.21;99061.19;5111966;28;20204;-62
2023/09/14 01:24:15;;;;;;;6.43;2.63;;;;;;;20.51;55.29;99057.78;5111269;28;20678;-63
2023/09/14 01:26:43;;;;;;;6.77;2.63;;;;;;;20.46;55.78;99057.50;5111633;28;20211;-62
2023/09/14 01:29:10;;;;;;;6.20;2.50;;;;;;;20.44;56.57;99070.63;5111882;28;20246;-63
2023/09/14 01:31:38;;;;;;;5.40;2.50;;;;;;;20.40;56.84;99064.19;5111505;28;20213;-62
2023/09/14 01:34:05;;;;;;;6.03;2.60;;;;;;;20.40;56.87;99056.41;5111287;28;20205;-62
2023/09/14 01:36:37;;;;;;;6.60;2.80;;;;;;;20.37;57.39;99061.94;5111801;28;20259;-62
2023/09/14 01:39:06;;;;;;;4.20;2.43;;;;;;;20.33;57.68;99058.06;5111723;28;20653;-62
2023/09/14 01:41:34;;;;;;;5.77;2.47;;;;;;;20.27;57.83;99056.97;5110772;28;20243;-62
2023/09/14 01:44:04;;;;;;;8.80;2.70;;;;;;;20.26;58.14;99059.75;5111586;28;20649;-62
2023/09/14 01:46:33;;;;;;;9.03;2.43;;;;;;;20.20;58.82;99065.66;5111938;28;20211;-62
2023/09/14 01:49:00;;;;;;;7.53;2.60;;;;;;;20.18;58.80;99067.59;5110965;28;20650;-62
2023/09/14 01:51:26;;;;;;;7.63;2.63;;;;;;;20.19;59.01;99062.25;5111525;28;20463;-62
2023/09/14 01:53:53;;;;;;;5.47;2.80;;;;;;;20.23;58.90;99055.72;5111758;28;20326;-62
2023/09/14 01:56:20;;;;;;;5.23;3.00;;;;;;;20.21;58.98;99056.88;5110581;28;20236;-62
2023/09/14 01:58:47;;;;;;;4.60;2.60;;;;;;;20.19;59.28;99053.63;5110979;28;20201;-62
2023/09/14 02:01:15;;;;;;;7.63;2.50;;;;;;;20.14;59.70;99051.56;5111261;28;20204;-62
2023/09/14 02:03:42;;;;;;;6.80;2.83;;;;;;;20.10;60.34;99051.13;5110605;28;20216;-62
2023/09/14 02:06:08;;;;;;;5.00;2.80;;;;;;;20.11;60.67;99057.91;5110664;28;20587;-62
2023/09/14 02:08:36;;;;;;;4.70;2.80;;;;;;;20.11;60.69;99052.72;5111521;28;20243;-62
2023/09/14 02:11:02;;;;;;;10.53;2.90;;;;;;;20.08;60.95;99058.25;5111087;28;20214;-62
2023/09/14 02:13:29;;;;;;;7.50;3.10;;;;;;;20.03;61.85;99060.56;5109610;28;20995;-62
2023/09/14 02:15:56;;;;;;;5.30;2.93;;;;;;;20.00;62.00;99054.91;5109416;28;20238;-62
2023/09/14 02:18:24;;;;;;;7.37;2.70;;;;;;;19.95;62.99;99060.59;5109657;28;20194;-62
2023/09/14 02:20:51;;;;;;;5.20;2.57;;;;;;;19.94;62.54;99059.00;5110335;28;20200;-62
2023/09/14 02:23:18;;;;;;;8.33;3.00;;;;;;;19.94;63.13;99056.41;5110840;28;20201;-62
2023/09/14 02:25:45;;;;;;;5.30;2.70;;;;;;;19.96;62.92;99064.81;5110511;28;20200;-63
2023/09/14 02:28:13;;;;;;;5.73;2.40;;;;;;;19.94;63.17;99064.19;5110258;28;20231;-62
2023/09/14 02:30:40;;;;;;;7.40;2.90;;;;;;;19.92;63.65;99057.53;5110601;28;20298;-62
2023/09/14 02:33:07;;;;;;;7.73;2.97;;;;;;;19.91;63.79;99067.13;5110623;28;20195;-62
2023/09/14 02:35:36;;;;;;;6.17;2.73;;;;;;;19.95;63.99;99064.97;5109749;28;20604;-62
2023/09/14 02:38:02;;;;;;;6.03;3.00;;;;;;;19.87;64.29;99068.44;5110451;28;20727;-62
2023/09/14 02:40:30;;;;;;;7.17;2.73;;;;;;;19.86;64.29;99069.41;5110748;28;20302;-63
2023/09/14 02:42:57;;;;;;;8.60;3.00;;;;;;;19.90;63.96;99074.09;5109985;28;20269;-63
2023/09/14 02:45:24;;;;;;;5.87;2.57;;;;;;;19.84;64.60;99067.00;5110057;28;20216;-62
2023/09/14 02:47:51;;;;;;;7.50;3.20;;;;;;;19.77;64.57;99071.25;5110213;28;20200;-62
2023/09/14 02:50:18;;;;;;;8.07;3.20;;;;;;;19.79;65.07;99081.47;5109775;28;20219;-63
2023/09/14 02:52:46;;;;;;;6.47;2.97;;;;;;;19.72;65.38;99078.72;5109944;28;20202;-62
2023/09/14 02:55:13;;;;;;;4.40;2.77;;;;;;;19.67;65.54;99076.66;5110730;28;20241;-63
2023/09/14 02:57:40;;;;;;;8.00;2.93;;;;;;;19.61;65.65;99072.13;5110302;28;20260;-62
2023/09/14 03:00:10;;;;;;;6.00;2.90;;;;;;;19.54;65.83;99065.16;5109409;28;20202;-63
2023/09/14 03:02:40;;;;;;;5.87;2.40;;;;;;;19.48;66.55;99066.66;5110469;28;20203;-63
2023/09/14 03:05:07;;;;;;;6.50;2.67;;;;;;;19.47;66.71;99070.22;5110193;28;20214;-63
2023/09/14 03:07:34;;;;;;;6.73;3.13;;;;;;;19.41;67.24;99063.13;5109351;27;20252;-63
2023/09/14 03:10:02;;;;;;;6.03;2.97;;;;;;;19.41;67.20;99068.31;5110044;28;20216;-63
2023/09/14 03:12:29;;;;;;;10.37;2.67;;;;;;;19.40;67.32;99064.09;5109838;28;20320;-63
2023/09/14 03:14:56;;;;;;;10.03;3.10;;;;;;;19.42;67.56;99067.31;5109290;28;20214;-63
2023/09/14 03:17:22;;;;;;;4.23;2.60;;;;;;;19.39;67.98;99063.28;5109402;27;20208;-63
2023/09/14 03:19:49;;;;;;;5.50;2.90;;;;;;;19.39;68.33;99070.25;5109625;28;20208;-63
2023/09/14 03:22:16;;;;;;;8.13;3.27;;;;;;;19.34;68.43;99072.53;5109773;28;20222;-63
2023/09/14 03:24:43;;;;;;;5.23;2.50;;;;;;;19.33;68.50;99068.34;5109074;28;20217;-63
2023/09/14 03:27:12;;;;;;;6.33;2.60;;;;;;;19.34;69.38;99075.13;5109484;28;20207;-63
2023/09/14 03:29:38;;;;;;;8.03;2.90;;;;;;;19.36;69.21;99075.78;5109989;28;20221;-63
2023/09/14 03:32:05;;;;;;;6.90;2.80;;;;;;;19.34;69.05;99073.34;5109162;28;20198;-62
2023/09/14 03:34:32;;;;;;;7.33;3.10;;;;;;;19.39;69.22;99073.66;5109412;28;20210;-63
2023/09/14 03:36:59;;;;;;;5.23;2.93;;;;;;;19.41;69.45;99076.88;5109180;28;20485;-62
2023/09/14 03:39:26;;;;;;;4.37;2.60;;;;;;;19.45;69.82;99072.16;5108741;28;20208;-63
2023/09/14 03:41:53;;;;;;;3.90;2.60;;;;;;;19.45;70.36;99072.16;5108511;28;20203;-63
2023/09/14 03:44:21;;;;;;;7.77;2.87;;;;;;;19.47;69.94;99070.22;5109114;28;20203;-63
2023/09/14 03:46:47;;;;;;;6.77;3.13;;;;;;;19.44;70.30;99070.56;5108782;28;20215;-63
2023/09/14 03:49:14;;;;;;;9.33;2.80;;;;;;;19.40;71.01;99074.44;5108658;28;20198;-62
2023/09/14 03:51:41;;;;;;;4.73;2.87;;;;;;;19.38;71.05;99076.44;5109289;28;20199;-62
2023/09/14 03:54:08;;;;;;;6.50;2.70;;;;;;;19.40;71.15;99069.28;5109022;28;20199;-63
2023/09/14 03:56:35;;;;;;;9.20;3.13;;;;;;;19.37;71.63;99079.97;5108338;27;20324;-62
2023/09/14 03:59:03;;;;;;;6.47;3.00;;;;;;;19.35;71.49;99076.75;5109080;28;20226;-62
2023/09/14 04:01:31;;;;;;;7.50;3.03;;;;;;;19.33;71.75;99083.88;5108812;28;20705;-62
2023/09/14 04:03:58;;;;;;;5.87;2.90;;;;;;;19.34;72.04;99075.13;5108185;28;20459;-62
2023/09/14 04:06:24;;;;;;;7.10;2.90;;;;;;;19.36;71.50;99083.56;5108614;28;20271;-63
2023/09/14 04:08:51;;;;;;;6.23;2.80;;;;;;;19.34;72.00;99085.50;5108653;28;20202;-62
2023/09/14 04:11:18;;;;;;;4.20;2.67;;;;;;;19.37;72.07;99090.34;5108337;28;20197;-62
2023/09/14 04:13:45;;;;;;;6.67;2.73;;;;;;;19.41;71.96;99086.47;5108357;28;20207;-62
2023/09/14 04:16:13;;;;;;;4.73;2.80;;;;;;;19.43;71.62;99085.31;5108918;28;20312;-62
2023/09/14 04:18:41;;;;;;;6.30;3.00;;;;;;;19.49;72.01;99083.00;5108423;28;20202;-62
2023/09/14 04:21:08;;;;;;;6.80;3.07;;;;;;;19.45;72.05;99088.53;5107979;28;20202;-63
2023/09/14 04:23:35;;;;;;;5.13;2.80;;;;;;;19.38;72.36;99082.41;5108671;28;20209;-63
2023/09/14 04:26:03;;;;;;;4.70;2.70;;;;;;;19.29;72.22;99093.78;5108627;28;20202;-63
2023/09/14 04:28:31;;;;;;;4.13;2.57;;;;;;;19.26;73.20;99093.28;5107605;28;20211;-63
2023/09/14 04:31:01;;;;;;;8.80;3.23;;;;;;;19.25;73.82;99102.84;5108347;28;20232;-63
2023/09/14 04:33:28;;;;;;;6.13;2.87;;;;;;;19.30;74.04;99099.78;5108963;28;20278;-62
2023/09/14 04:36:05;;;;;;;5.90;2.60;;;;;;;19.33;73.69;99104.63;5107504;28;20282;-62
2023/09/14 04:38:33;;;;;;;4.43;2.80;;;;;;;19.33;74.11;99099.44;5107922;28;20194;-63
2023/09/14 04:41:03;;;;;;;3.87;2.77;;;;;;;19.35;74.07;99102.69;5108393;28;20234;-63
2023/09/14 04:43:32;;;;;;;5.87;2.90;;;;;;;19.37;74.08;99111.09;5107970;28;20191;-62
2023/09/14 04:46:00;;;;;;;4.50;2.77;;;;;;;19.43;74.00;99115.59;5107723;28;20279;-63
2023/09/14 04:48:26;;;;;;;5.03;2.77;;;;;;;19.52;73.86;99109.44;5108144;28;20194;-63
2023/09/14 04:50:56;;;;;;;6.70;2.60;;;;;;;19.74;74.21;99112.28;5108004;28;20204;-63
2023/09/14 04:53:24;;;;;;;5.40;2.90;;;;;;;19.95;74.00;99109.09;5107200;28;20208;-63
2023/09/14 04:55:51;;;;;;;3.73;2.73;;;;;;;20.01;73.02;99104.06;5111042;28;20270;-63
2023/09/14 04:58:18;;;;;;;5.97;3.10;;;;;;;20.04;72.72;99108.91;5112394;28;20674;-63
2023/09/14 05:00:48;;;;;;;4.37;2.60;;;;;;;20.08;72.78;99104.97;5111449;28;20602;-63
2023/09/14 05:03:15;;;;;;;4.27;2.57;;;;;;;20.07;72.84;99111.16;5112665;28;20228;-63
2023/09/14 05:05:42;;;;;;;4.80;2.87;;;;;;;20.01;72.41;99114.44;5112452;28;20273;-63
2023/09/14 05:08:09;;;;;;;6.97;2.67;;;;;;;20.02;72.41;99110.84;5111802;28;20192;-63
2023/09/14 05:10:37;;;;;;;5.30;2.90;;;;;;;20.09;72.26;99116.16;5111241;28;20215;-63
2023/09/14 05:13:04;;;;;;;6.53;2.70;;;;;;;20.29;72.60;99113.94;5111302;28;20208;-63
2023/09/14 05:15:31;;;;;;;5.87;2.70;;;;;;;20.38;72.55;99115.47;5111320;28;20207;-63
2023/09/14 05:17:58;;;;;;;5.50;2.87;;;;;;;20.49;71.72;99120.28;5112546;28;20619;-63
2023/09/14 05:20:25;;;;;;;8.80;2.77;;;;;;;20.63;71.55;99123.16;5111976;28;20215;-63
2023/09/14 05:22:52;;;;;;;7.53;2.67;;;;;;;20.78;71.60;99121.38;5111207;28;20229;-63
2023/09/14 05:25:20;;;;;;;4.40;2.80;;;;;;;20.89;72.39;99122.75;5111973;28;20199;-63
2023/09/14 05:27:48;;;;;;;5.80;2.70;;;;;;;21.11;69.93;99121.06;5111795;28;20229;-63
2023/09/14 05:30:15;;;;;;;4.47;2.73;;;;;;;21.35;68.92;99126.03;5111329;28;20203;-63
2023/09/14 05:32:42;;;;;;;5.37;3.10;;;;;;;21.57;66.85;99123.53;5111765;28;20203;-63
2023/09/14 05:35:09;;;;;;;5.00;3.00;;;;;;;21.69;66.29;99120.28;5112232;28;20208;-63
2023/09/14 05:37:36;;;;;;;6.30;2.90;;;;;;;21.85;65.22;99116.69;5111133;28;20234;-63
2023/09/14 05:40:09;;;;;;;7.20;2.80;;;;;;;22.06;64.76;99125.53;5111225;28;20204;-63
2023/09/14 05:42:38;;;;;;;7.13;3.00;;;;;;;22.23;67.18;99126.94;5111711;28;20204;-63
2023/09/14 05:45:08;;;;;;;4.67;2.93;;;;;;;22.38;64.34;99109.44;5111111;28;20659;-62
2023/09/14 05:47:35;;;;;;;7.38;2.88;;;;;;;22.60;62.66;99118.06;5110818;28;20219;-63
2023/09/14 05:50:03;;;;;;;5.97;2.90;;;;;;;22.80;61.18;99113.00;5111443;28;20204;-63
2023/09/14 05:52:30;;;;;;;7.22;3.25;;;;;;;22.90;60.30;99117.09;5111319;28;20197;-63
2023/09/14 05:54:57;;;;;;;5.72;3.00;;;;;;;22.98;60.19;99123.00;5110882;28;20224;-63
2023/09/14 05:57:24;;;;;;;4.85;2.92;;;;;;;23.12;59.57;99125.69;5111329;28;20917;-63
2023/09/14 05:59:51;;;;;;;5.82;3.40;;;;;;;23.24;58.34;99114.53;5110965;28;20197;-63
2023/09/14 06:02:19;;;;;;;9.73;3.30;;;;;;;23.32;58.07;99115.38;5111241;28;20208;-63
2023/09/14 06:04:47;;;;;;;3.45;2.50;;;;;;;23.40;57.31;99123.06;5111029;28;20211;-62
2023/09/14 06:07:14;;;;;;;6.90;2.80;;;;;;;23.63;56.94;99115.72;5110493;28;20198;-62
2023/09/14 06:09:40;;;;;;;9.30;3.00;;;;;;;23.77;55.72;99134.09;5111267;28;20209;-62
2023/09/14 06:12:08;;;;;;;5.22;2.72;;;;;;;23.90;55.28;99141.97;5111156;28;20235;-62
2023/09/14 06:14:36;;;;;;;39.75;4.28;;;;;;;24.11;57.73;99136.59;5111258;28;20206;-63
2023/09/14 06:17:03;;;;;;;22.90;4.18;;;;;;;24.11;55.36;99126.16;5110746;28;20319;-62
2023/09/14 06:19:31;;;;;;;4.70;3.22;;;;;;;24.29;56.58;99128.22;5110891;28;20694;-62
2023/09/14 06:21:58;;;;;;;20.00;4.07;;;;;;;24.55;54.94;99126.66;5110862;28;20201;-63
2023/09/14 06:24:25;;;;;;;14.35;3.00;;;;;;;24.68;54.26;99125.88;5111050;28;20202;-63
2023/09/14 06:26:52;;;;;;;7.93;3.28;;;;;;;24.70;56.57;99131.72;5110664;28;20232;-63
2023/09/14 06:29:19;;;;;;;6.78;3.70;;;;;;;24.74;53.57;99140.75;5110657;28;20480;-63
2023/09/14 06:31:45;;;;;;;8.25;2.95;;;;;;;24.97;57.51;99140.34;5110656;28;20588;-63
2023/09/14 06:34:12;;;;;;;7.57;3.25;;;;;;;25.08;53.40;99145.75;5110648;28;20300;-63
2023/09/14 06:36:40;;;;;;;3.92;2.90;;;;;;;25.32;53.20;99148.75;5110250;28;20229;-63
2023/09/14 06:39:07;;;;;;;31.17;4.38;;;;;;;25.44;52.24;99147.13;5110623;28;20291;-63
2023/09/14 06:41:34;;;;;;;7.30;3.65;;;;;;;25.53;51.77;99151.09;5110319;28;20202;-64
2023/09/14 06:44:01;;;;;;;6.53;3.08;;;;;;;25.68;50.85;99150.06;5110259;28;20202;-63
2023/09/14 06:46:28;;;;;;;6.25;3.50;;;;;;;26.02;52.15;99158.63;5110571;28;20227;-63
2023/09/14 06:48:55;;;;;;;5.93;3.05;;;;;;;26.23;51.86;99166.16;5110394;28;20200;-63
2023/09/14 06:51:21;;;;;;;7.35;3.55;;;;;;;26.45;48.55;99163.22;5110123;28;20204;-63
2023/09/14 06:53:51;;;;;;;8.65;3.55;;;;;;;26.69;49.05;99175.56;5110188;28;20201;-63
2023/09/14 06:56:18;;;;;;;7.80;3.13;;;;;;;26.89;50.60;99179.88;5110039;28;20314;-63
2023/09/14 06:58:45;;;;;;;7.30;3.60;;;;;;;26.97;48.21;99171.72;5110159;28;20201;-63
2023/09/14 07:01:11;;;;;;;7.85;3.50;;;;;;;27.07;46.62;99177.28;5110000;28;20229;-63
2023/09/14 07:03:38;;;;;;;6.28;3.35;;;;;;;27.00;48.22;99176.53;5109884;28;20572;-63
2023/09/14 07:06:05;;;;;;;7.00;3.67;;;;;;;27.23;47.35;99179.38;5109943;28;20194;-63
2023/09/14 07:08:32;;;;;;;10.80;3.40;;;;;;;27.51;47.22;99185.97;5109873;28;20464;-63
2023/09/14 07:11:00;;;;;;;6.28;3.17;;;;;;;27.59;45.69;99188.28;5110050;28;20315;-63
2023/09/14 07:13:27;;;;;;;7.18;3.70;;;;;;;27.56;45.82;99201.88;5110148;28;20193;-63
2023/09/14 07:15:54;;;;;;;9.40;3.88;;;;;;;27.73;45.86;99197.63;5110020;28;20613;-63
2023/09/14 07:18:28;;;;;;;9.80;3.30;;;;;;;27.87;45.72;99198.31;5108867;28;20298;-63
2023/09/14 07:20:56;;;;;;;16.77;4.07;;;;;;;27.83;44.53;99196.34;5109543;28;20684;-63
2023/09/14 07:23:23;;;;;;;12.75;3.65;;;;;;;27.94;43.92;99198.22;5109384;28;20205;-63
2023/09/14 07:25:50;;;;;;;8.95;3.55;;;;;;;27.99;44.69;99195.75;5109629;28;20208;-63
2023/09/14 07:28:19;;;;;;;4.60;3.47;;;;;;;28.12;44.78;99190.31;5109468;28;20212;-63
2023/09/14 07:30:48;;;;;;;6.72;3.50;;;;;;;28.33;44.62;99191.66;5109245;28;20700;-63
2023/09/14 07:33:15;;;;;;;5.60;3.30;;;;;;;28.45;43.25;99191.72;5109339;28;20291;-63
2023/09/14 07:35:42;;;;;;;8.85;3.40;;;;;;;28.68;47.92;99188.31;5109531;28;20202;-63
2023/09/14 07:38:10;;;;;;;4.65;3.42;;;;;;;28.55;45.00;99184.06;5109716;28;20225;-62
2023/09/14 07:40:38;;;;;;;6.32;3.28;;;;;;;28.72;46.00;99188.69;5109531;28;20277;-66
2023/09/14 07:43:05;;;;;;;9.18;5.43;;;;;;;28.48;42.55;99188.66;5109166;28;20228;-68
2023/09/14 07:45:33;;;;;;;46.47;16.98;;;;;;;28.69;42.39;99184.69;5109192;28;20279;-67
2023/09/14 07:48:01;;;;;;;11.43;6.70;;;;;;;28.86;44.17;99190.09;5109409;28;20201;-66
2023/09/14 07:50:28;;;;;;;25.90;14.35;;;;;;;28.76;41.23;99184.56;5109129;28;20277;-67
2023/09/14 07:52:54;;;;;;;8.63;4.03;;;;;;;28.65;42.60;99184.34;5109074;28;20790;-67
2023/09/14 07:55:21;;;;;;;68.20;38.00;;;;;;;28.77;41.81;99186.16;5109068;28;20205;-68
2023/09/14 07:57:48;;;;;;;22.70;13.18;;;;;;;28.97;43.26;99186.63;5108843;28;20228;-67
2023/09/14 08:00:15;;;;;;;8.18;4.30;;;;;;;29.16;41.38;99189.22;5108912;28;20698;-67
2023/09/14 08:02:43;;;;;;;7.90;3.60;;;;;;;29.23;42.45;99184.59;5108858;28;20201;-67
2023/09/14 08:05:10;;;;;;;7.80;3.92;;;;;;;29.47;41.65;99183.56;5108923;28;20201;-68
2023/09/14 08:07:37;;;;;;;43.25;23.30;;;;;;;29.60;44.60;99179.06;5108829;28;20201;-65
2023/09/14 08:10:05;;;;;;;8.13;3.83;;;;;;;30.06;42.46;99188.69;5108752;28;20798;-65
2023/09/14 08:12:31;;;;;;;15.13;7.97;;;;;;;30.12;38.41;99193.03;5108762;28;20205;-67
2023/09/14 08:14:58;;;;;;;8.30;4.85;;;;;;;30.39;40.21;99197.75;5108921;28;20193;-65
2023/09/14 08:17:26;;;;;;;7.38;3.85;;;;;;;30.60;39.98;99193.59;5108448;28;20233;-64
2023/09/14 08:19:54;;;;;;;12.38;3.22;;;;;;;30.70;40.87;99193.78;5108567;28;20194;-68
2023/09/14 08:22:23;;;;;;;5.65;3.58;;;;;;;30.61;38.93;99189.94;5108850;28;20201;-66
2023/09/14 08:24:50;;;;;;;16.58;9.93;;;;;;;31.05;41.03;99190.13;5108373;28;20295;-67
2023/09/14 08:27:17;;;;;;;46.08;21.95;;;;;;;31.22;36.67;99180.31;5108560;28;20193;-66
2023/09/14 08:29:44;;;;;;;8.00;4.18;;;;;;;31.37;38.44;99192.16;5108460;28;20228;-65
2023/09/14 08:32:11;;;;;;;8.60;3.65;;;;;;;31.38;39.41;99193.75;5108690;28;20201;-67
2023/09/14 08:34:38;;;;;;;5.15;3.35;;;;;;;31.42;36.98;99179.03;5108448;28;20201;-67
2023/09/14 08:37:09;;;;;;;8.23;3.80;;;;;;;31.69;38.49;99184.38;5108388;28;20232;-67
2023/09/14 08:39:36;;;;;;;5.50;2.97;;;;;;;31.78;38.35;99188.97;5108382;28;20193;-67
2023/09/14 08:42:02;;;;;;;6.22;3.70;;;;;;;31.89;37.60;99186.44;5108189;28;20201;-67
2023/09/14 08:44:33;;;;;;;5.28;3.33;;;;;;;31.95;36.26;99190.78;5108324;28;20624;-67
2023/09/14 08:47:01;;;;;;;7.35;3.35;;;;;;;32.08;35.64;99187.72;5108295;28;20197;-67
2023/09/14 08:49:29;;;;;;;4.78;3.53;;;;;;;32.31;38.11;99177.88;5108282;28;20205;-67
2023/09/14 08:51:58;;;;;;;5.75;3.70;;;;;;;32.40;39.58;99181.66;5108143;28;20197;-67
2023/09/14 08:54:27;;;;;;;7.80;3.85;;;;;;;32.74;36.15;99184.09;5107990;28;20209;-67
2023/09/14 08:56:54;;;;;;;6.88;3.53;;;;;;;32.75;34.00;99183.03;5108061;28;20229;-66
2023/09/14 08:59:23;;;;;;;6.65;3.60;;;;;;;32.95;34.47;99180.53;5108168;28;20197;-66
2023/09/14 09:01:52;;;;;;;8.02;3.30;;;;;;;33.31;39.53;99173.63;5107945;28;20202;-66
2023/09/14 09:04:19;;;;;;;7.95;3.45;;;;;;;33.51;35.81;99172.09;5108134;28;20209;-66
2023/09/14 09:06:46;;;;;;;7.82;3.60;;;;;;;33.48;33.10;99172.63;5107784;28;20207;-66
2023/09/14 09:09:15;;;;;;;5.45;3.35;;;;;;;33.47;32.34;99174.47;5107965;28;20212;-66
2023/09/14 09:11:44;;;;;;;6.45;3.22;;;;;;;33.70;32.43;99175.13;5107865;28;20190;-66
2023/09/14 09:14:11;;;;;;;6.60;3.35;;;;;;;33.84;35.78;99170.94;5108309;28;20194;-66
2023/09/14 09:16:39;;;;;;;9.18;3.55;;;;;;;34.00;34.54;99167.22;5108142;28;20197;-66
2023/09/14 09:19:07;;;;;;;6.82;2.95;;;;;;;33.75;32.31;99165.31;5107979;28;20591;-66
2023/09/14 09:21:35;;;;;;;6.80;3.42;;;;;;;34.17;31.93;99172.31;5107584;28;20599;-66
2023/09/14 09:24:05;;;;;;;4.28;2.90;;;;;;;34.20;31.38;99169.16;5108197;28;20228;-67
2023/09/14 09:26:34;;;;;;;5.13;3.20;;;;;;;34.13;31.01;99163.31;5108118;28;20205;-67
2023/09/14 09:29:13;;;;;;;6.97;3.20;;;;;;;34.26;32.72;99157.47;5107786;28;20714;-66
2023/09/14 09:31:45;;;;;;;8.85;3.50;;;;;;;33.64;30.86;99165.56;5107788;28;20722;-66
2023/09/14 09:34:12;;;;;;;5.53;3.15;;;;;;;34.17;34.36;99168.88;5107682;28;20194;-68
2023/09/14 09:36:40;;;;;;;6.32;3.13;;;;;;;34.23;32.57;99159.88;5107546;28;20202;-68
2023/09/14 09:39:11;;;;;;;5.68;2.90;;;;;;;34.24;31.83;99164.13;5108096;28;20233;-66
2023/09/14 09:41:38;;;;;;;8.02;2.95;;;;;;;34.17;30.41;99167.03;5110424;28;20718;-69
2023/09/14 09:44:09;;;;;;;6.45;3.63;;;;;;;34.20;31.82;99163.03;5111638;28;20228;-68
2023/09/14 09:46:36;;;;;;;9.40;3.30;;;;;;;34.05;30.67;99165.69;5111894;28;20197;-68
2023/09/14 09:49:04;;;;;;;8.38;2.83;;;;;;;34.13;29.32;99162.53;5111481;28;20636;-69
2023/09/14 09:51:33;;;;;;;9.65;3.00;;;;;;;34.31;31.28;99159.34;5111315;28;20704;-67
2023/09/14 09:54:04;;;;;;;6.85;3.63;;;;;;;34.43;33.52;99157.22;5111633;28;20272;-67
2023/09/14 09:56:31;;;;;;;9.30;3.38;;;;;;;34.34;31.00;99160.66;5111452;28;20208;-67
2023/09/14 09:59:02;;;;;;;7.60;3.33;;;;;;;34.23;35.29;99157.22;5111566;28;20234;-67
2023/09/14 10:01:31;;;;;;;5.53;3.30;;;;;;;34.54;34.17;99160.66;5110462;28;20752;-66
2023/09/14 10:03:59;;;;;;;7.53;3.03;;;;;;;34.45;31.50;99163.06;5109943;28;20624;-67
2023/09/14 10:06:26;;;;;;;6.97;3.22;;;;;;;34.85;34.69;99158.81;5110066;28;20205;-67
2023/09/14 10:08:56;;;;;;;5.65;3.25;;;;;;;34.81;33.33;99152.41;5110628;28;20197;-67
2023/09/14 10:11:25;;;;;;;7.88;3.10;;;;;;;34.74;33.23;99149.25;5111084;28;20704;-67
2023/09/14 10:13:52;;;;;;;7.78;3.33;;;;;;;34.89;32.75;99154.53;5111047;28;20197;-67
2023/09/14 10:16:23;;;;;;;5.45;3.05;;;;;;;34.70;31.27;99148.19;5111003;28;20608;-67
2023/09/14 10:18:55;;;;;;;6.50;2.88;;;;;;;34.83;34.90;99145.00;5111122;28;20233;-67
2023/09/14 10:21:24;;;;;;;9.50;3.00;;;;;;;34.51;30.32;99158.53;5111089;28;20193;-67
2023/09/14 10:23:52;;;;;;;6.70;3.08;;;;;;;34.61;32.82;99152.44;5110936;28;20209;-67
2023/09/14 10:26:20;;;;;;;7.45;2.95;;;;;;;34.26;33.19;99154.03;5111037;28;20198;-67
2023/09/14 10:28:47;;;;;;;6.50;3.17;;;;;;;34.34;30.96;99147.41;5110714;28;20640;-67
2023/09/14 10:31:15;;;;;;;6.25;2.90;;;;;;;34.27;32.66;99147.66;5110655;28;20208;-67
2023/09/14 10:33:45;;;;;;;9.02;2.92;;;;;;;34.20;31.50;99144.47;5110539;28;20201;-67
2023/09/14 10:36:16;;;;;;;10.55;2.97;;;;;;;34.19;30.95;99142.88;5110993;28;20624;-67
2023/09/14 10:38:44;;;;;;;6.40;2.88;;;;;;;34.00;30.03;99142.56;5110471;28;20793;-67
2023/09/14 10:41:13;;;;;;;7.30;3.15;;;;;;;33.58;30.92;99141.69;5110517;28;20286;-67
2023/09/14 10:43:41;;;;;;;5.68;2.90;;;;;;;33.80;31.04;99138.00;5110433;28;20534;-67
2023/09/14 10:46:17;;;;;;;8.30;3.03;;;;;;;33.96;32.73;99136.97;5110336;28;20235;-67
2023/09/14 10:48:45;;;;;;;7.53;2.95;;;;;;;33.68;31.41;99132.94;5110510;28;20250;-67
2023/09/14 10:51:13;;;;;;;6.75;2.90;;;;;;;33.59;32.57;99132.66;5110273;28;20197;-67
2023/09/14 10:53:42;;;;;;;8.60;2.92;;;;;;;33.54;31.58;99132.66;5109407;28;20193;-67
2023/09/14 10:56:20;;;;;;;5.28;2.88;;;;;;;33.34;32.66;99124.59;5110170;28;20600;-67
2023/09/14 10:58:52;;;;;;;9.98;3.03;;;;;;;33.62;33.10;99128.69;5110126;28;20766;-67
2023/09/14 11:01:24;;;;;;;8.35;3.10;;;;;;;33.70;33.12;99127.38;5110228;28;20311;-67
2023/09/14 11:04:13;;;;;;;6.53;3.22;;;;;;;33.72;31.37;99127.94;5109906;28;20649;-67
2023/09/14 11:06:44;;;;;;;9.38;3.25;;;;;;;34.07;34.26;99131.75;5109849;28;20237;-67
2023/09/14 11:09:14;;;;;;;6.28;2.75;;;;;;;33.89;30.36;99125.84;5110216;28;20224;-67
2023/09/14 11:11:42;;;;;;;6.35;2.63;;;;;;;33.99;33.34;99125.06;5109887;28;20194;-67
2023/09/14 11:14:10;;;;;;;5.88;2.63;;;;;;;34.08;32.52;99122.72;5109995;28;20201;-67
2023/09/14 11:16:45;;;;;;;5.80;2.55;;;;;;;33.94;28.89;99125.84;5110109;28;20205;-67
2023/09/14 11:19:45;;;;;;;6.82;2.60;;;;;;;34.00;28.15;99126.63;5109746;28;20228;-67
2023/09/14 11:22:16;;;;;;;4.72;2.40;;;;;;;34.16;28.55;99124.84;5109780;28;20225;-67
2023/09/14 11:24:45;;;;;;;5.80;2.60;;;;;;;33.97;28.70;99120.00;5109610;28;20709;-67
2023/09/14 11:27:18;;;;;;;8.15;2.78;;;;;;;34.21;31.30;99119.50;5109594;28;20212;-67
2023/09/14 11:29:46;;;;;;;8.68;2.90;;;;;;;34.37;30.10;99115.81;5109651;28;20221;-66
2023/09/14 11:32:21;;;;;;;4.47;2.30;;;;;;;34.41;29.02;99111.56;5109761;28;20519;-67
2023/09/14 11:34:48;;;;;;;6.35;2.50;;;;;;;34.68;30.26;99108.63;5109645;28;20197;-67
2023/09/14 11:37:16;;;;;;;3.88;2.47;;;;;;;34.86;31.60;99107.25;5109480;28;20208;-66